sensor_id;sensor_type;location;lat;lon;timestamp;pressure;altitude;pressure_sealevel;temperature;humidity
47366;BME280;33105;47.964;7.982;2024-03-23T00:55:24;96101.03;;;11.33;96.46
47366;BME280;33105;47.964;7.982;2024-03-23T00:58:25;96091.66;;;12.17;90.99
47366;BME280;33105;47.964;7.982;2024-03-23T01:01:26;96099.28;;;12.73;87.09
47366;BME280;33105;47.964;7.982;2024-03-23T01:04:28;96078.91;;;13.27;81.61
47366;BME280;33105;47.964;7.982;2024-03-23T01:07:29;96076.31;;;13.73;78.62
47366;BME280;33105;47.964;7.982;2024-03-23T01:10:30;96058.59;;;13.98;77.13
47366;BME280;33105;47.964;7.982;2024-03-23T01:13:31;96061.94;;;13.95;76.98
47366;BME280;33105;47.964;7.982;2024-03-23T01:16:32;96053.25;;;14.07;76.28
47366;BME280;33105;47.964;7.982;2024-03-23T01:19:34;96049.09;;;14.09;74.71
47366;BME280;33105;47.964;7.982;2024-03-23T01:22:35;96049.19;;;14.18;75.24
47366;BME280;33105;47.964;7.982;2024-03-23T01:25:36;96037.38;;;14.17;73.61
47366;BME280;33105;47.964;7.982;2024-03-23T01:28:37;96040.97;;;14.32;72.54
47366;BME280;33105;47.964;7.982;2024-03-23T01:31:38;96039.13;;;14.27;73.17
47366;BME280;33105;47.964;7.982;2024-03-23T01:34:41;96047.16;;;14.23;72.92
47366;BME280;33105;47.964;7.982;2024-03-23T01:37:42;96054.00;;;14.40;71.58
47366;BME280;33105;47.964;7.982;2024-03-23T01:40:43;96043.16;;;14.62;70.21
47366;BME280;33105;47.964;7.982;2024-03-23T01:43:44;96042.97;;;14.72;70.23
47366;BME280;33105;47.964;7.982;2024-03-23T01:46:45;96040.22;;;14.72;69.71
47366;BME280;33105;47.964;7.982;2024-03-23T01:49:47;96025.97;;;14.70;70.90
47366;BME280;33105;47.964;7.982;2024-03-23T01:52:48;96021.88;;;14.68;70.76
47366;BME280;33105;47.964;7.982;2024-03-23T01:55:50;96021.88;;;14.68;70.53
47366;BME280;33105;47.964;7.982;2024-03-23T01:58:51;96028.59;;;14.61;71.23
47366;BME280;33105;47.964;7.982;2024-03-23T02:01:53;96017.13;;;14.59;71.11
47366;BME280;33105;47.964;7.982;2024-03-23T02:04:56;96032.06;;;14.67;70.95
47366;BME280;33105;47.964;7.982;2024-03-23T02:07:58;96035.72;;;14.49;71.35
47366;BME280;33105;47.964;7.982;2024-03-23T02:10:59;96034.63;;;14.50;71.40
47366;BME280;33105;47.964;7.982;2024-03-23T02:14:00;96032.78;;;14.45;70.71
47366;BME280;33105;47.964;7.982;2024-03-23T02:17:01;96028.06;;;14.32;70.96
47366;BME280;33105;47.964;7.982;2024-03-23T02:20:03;96031.09;;;14.30;69.05
47366;BME280;33105;47.964;7.982;2024-03-23T02:23:14;96027.63;;;14.39;67.87
47366;BME280;33105;47.964;7.982;2024-03-23T02:26:15;96012.13;;;14.48;67.76
47366;BME280;33105;47.964;7.982;2024-03-23T02:29:17;96025.84;;;14.48;65.85
47366;BME280;33105;47.964;7.982;2024-03-23T02:32:20;96027.78;;;14.47;64.79
47366;BME280;33105;47.964;7.982;2024-03-23T02:35:22;96023.91;;;14.35;64.71
47366;BME280;33105;47.964;7.982;2024-03-23T02:38:23;96019.84;;;14.46;64.50
47366;BME280;33105;47.964;7.982;2024-03-23T02:41:24;96028.16;;;14.27;63.53
47366;BME280;33105;47.964;7.982;2024-03-23T02:44:26;96015.25;;;14.41;63.98
47366;BME280;33105;47.964;7.982;2024-03-23T02:47:27;95998.00;;;14.36;64.10
47366;BME280;33105;47.964;7.982;2024-03-23T02:50:28;96005.34;;;14.40;63.32
47366;BME280;33105;47.964;7.982;2024-03-23T02:53:29;96001.28;;;14.38;63.89
47366;BME280;33105;47.964;7.982;2024-03-23T02:56:32;95991.91;;;14.39;64.27
47366;BME280;33105;47.964;7.982;2024-03-23T02:59:33;95978.72;;;14.41;64.18
47366;BME280;33105;47.964;7.982;2024-03-23T03:02:35;95993.34;;;14.22;65.51
47366;BME280;33105;47.964;7.982;2024-03-23T03:05:37;95982.03;;;14.24;64.73
47366;BME280;33105;47.964;7.982;2024-03-23T03:08:38;95968.72;;;14.31;64.69
47366;BME280;33105;47.964;7.982;2024-03-23T03:11:39;95968.28;;;13.96;65.37
47366;BME280;33105;47.964;7.982;2024-03-23T03:14:40;95968.09;;;14.07;65.12
47366;BME280;33105;47.964;7.982;2024-03-23T03:17:41;95964.63;;;14.01;65.64
47366;BME280;33105;47.964;7.982;2024-03-23T03:20:42;95969.47;;;13.77;66.86
47366;BME280;33105;47.964;7.982;2024-03-23T03:23:44;95961.25;;;13.90;66.23
47366;BME280;33105;47.964;7.982;2024-03-23T03:26:46;95965.16;;;13.71;67.06
47366;BME280;33105;47.964;7.982;2024-03-23T03:29:47;95955.00;;;13.71;67.18
47366;BME280;33105;47.964;7.982;2024-03-23T03:32:49;95943.50;;;13.69;68.45
47366;BME280;33105;47.964;7.982;2024-03-23T03:35:50;95934.50;;;13.82;66.73
47366;BME280;33105;47.964;7.982;2024-03-23T03:38:52;95925.03;;;13.88;67.68
47366;BME280;33105;47.964;7.982;2024-03-23T03:41:54;95915.16;;;13.87;67.87
47366;BME280;33105;47.964;7.982;2024-03-23T03:44:55;95923.81;;;13.81;68.19
47366;BME280;33105;47.964;7.982;2024-03-23T03:47:56;95923.00;;;13.80;74.36
47366;BME280;33105;47.964;7.982;2024-03-23T03:50:57;95926.66;;;13.76;76.29
47366;BME280;33105;47.964;7.982;2024-03-23T03:53:58;95904.03;;;13.51;77.89
47366;BME280;33105;47.964;7.982;2024-03-23T03:56:59;95912.84;;;13.35;78.27
47366;BME280;33105;47.964;7.982;2024-03-23T04:00:01;95915.28;;;13.36;80.36
47366;BME280;33105;47.964;7.982;2024-03-23T04:03:02;95906.91;;;13.27;81.41
47366;BME280;33105;47.964;7.982;2024-03-23T04:06:03;95896.31;;;13.21;83.10
47366;BME280;33105;47.964;7.982;2024-03-23T04:09:05;95893.28;;;13.22;84.02
47366;BME280;33105;47.964;7.982;2024-03-23T04:12:07;95889.06;;;13.11;83.76
47366;BME280;33105;47.964;7.982;2024-03-23T04:15:08;95878.97;;;13.07;85.19
47366;BME280;33105;47.964;7.982;2024-03-23T04:18:09;95869.72;;;13.03;85.49
47366;BME280;33105;47.964;7.982;2024-03-23T04:21:11;95876.69;;;12.95;85.17
47366;BME280;33105;47.964;7.982;2024-03-23T04:24:12;95924.41;;;12.94;94.91
47366;BME280;33105;47.964;7.982;2024-03-23T04:27:13;95893.34;;;12.42;100.00
47366;BME280;33105;47.964;7.982;2024-03-23T04:30:15;95884.38;;;11.94;100.00
47366;BME280;33105;47.964;7.982;2024-03-23T04:33:16;95892.50;;;11.75;100.00
47366;BME280;33105;47.964;7.982;2024-03-23T04:36:17;95893.66;;;11.69;100.00
47366;BME280;33105;47.964;7.982;2024-03-23T04:39:20;95891.34;;;11.57;100.00
47366;BME280;33105;47.964;7.982;2024-03-23T04:42:21;95876.66;;;11.48;100.00
47366;BME280;33105;47.964;7.982;2024-03-23T04:45:23;95875.16;;;11.61;100.00
47366;BME280;33105;47.964;7.982;2024-03-23T04:48:24;95875.38;;;11.65;100.00
47366;BME280;33105;47.964;7.982;2024-03-23T04:51:25;95905.66;;;11.73;100.00
47366;BME280;33105;47.964;7.982;2024-03-23T04:54:27;95895.53;;;11.74;100.00
47366;BME280;33105;47.964;7.982;2024-03-23T04:57:29;95929.06;;;11.61;100.00
47366;BME280;33105;47.964;7.982;2024-03-23T05:00:31;95937.91;;;11.47;100.00
47366;BME280;33105;47.964;7.982;2024-03-23T05:03:32;95924.25;;;11.47;100.00
47366;BME280;33105;47.964;7.982;2024-03-23T05:06:33;95935.72;;;11.49;100.00
47366;BME280;33105;47.964;7.982;2024-03-23T05:09:35;95940.66;;;11.47;100.00
47366;BME280;33105;47.964;7.982;2024-03-23T05:12:37;95922.13;;;11.39;100.00
47366;BME280;33105;47.964;7.982;2024-03-23T05:15:38;95925.75;;;11.35;100.00
47366;BME280;33105;47.964;7.982;2024-03-23T05:18:39;95933.75;;;11.26;100.00
47366;BME280;33105;47.964;7.982;2024-03-23T05:21:41;95932.03;;;11.35;100.00
47366;BME280;33105;47.964;7.982;2024-03-23T05:24:42;95937.03;;;11.23;100.00
47366;BME280;33105;47.964;7.982;2024-03-23T05:27:43;95953.44;;;11.23;100.00
47366;BME280;33105;47.964;7.982;2024-03-23T05:30:50;95977.56;;;11.16;100.00
47366;BME280;33105;47.964;7.982;2024-03-23T05:33:52;95969.53;;;10.90;100.00
47366;BME280;33105;47.964;7.982;2024-03-23T05:36:53;95971.44;;;10.90;100.00
47366;BME280;33105;47.964;7.982;2024-03-23T05:39:55;95976.88;;;10.95;100.00
47366;BME280;33105;47.964;7.982;2024-03-23T05:42:56;95977.22;;;10.88;100.00
47366;BME280;33105;47.964;7.982;2024-03-23T05:45:59;95984.47;;;11.03;100.00
47366;BME280;33105;47.964;7.982;2024-03-23T05:49:01;95977.31;;;10.68;100.00
47366;BME280;33105;47.964;7.982;2024-03-23T05:52:03;95989.13;;;10.59;100.00
47366;BME280;33105;47.964;7.982;2024-03-23T05:55:05;95986.22;;;10.35;100.00
47366;BME280;33105;47.964;7.982;2024-03-23T05:58:07;95991.06;;;10.48;100.00
47366;BME280;33105;47.964;7.982;2024-03-23T06:01:08;96012.47;;;10.26;100.00
47366;BME280;33105;47.964;7.982;2024-03-23T06:04:11;96019.28;;;10.23;100.00
47366;BME280;33105;47.964;7.982;2024-03-23T06:07:12;96020.34;;;10.17;100.00
47366;BME280;33105;47.964;7.982;2024-03-23T06:10:15;96030.47;;;10.27;100.00
47366;BME280;33105;47.964;7.982;2024-03-23T06:13:16;96035.13;;;10.06;100.00
47366;BME280;33105;47.964;7.982;2024-03-23T06:16:18;96050.09;;;10.18;100.00
47366;BME280;33105;47.964;7.982;2024-03-23T06:19:24;96047.69;;;10.07;100.00
47366;BME280;33105;47.964;7.982;2024-03-23T06:22:28;96084.00;;;9.62;100.00
47366;BME280;33105;47.964;7.982;2024-03-23T06:25:29;96093.25;;;9.50;100.00
47366;BME280;33105;47.964;7.982;2024-03-23T06:28:30;96086.97;;;9.30;100.00
47366;BME280;33105;47.964;7.982;2024-03-23T06:31:32;96114.16;;;9.04;100.00
47366;BME280;33105;47.964;7.982;2024-03-23T06:34:33;96140.28;;;9.00;100.00
47366;BME280;33105;47.964;7.982;2024-03-23T06:37:35;96155.94;;;8.68;100.00
47366;BME280;33105;47.964;7.982;2024-03-23T06:40:36;96151.06;;;8.70;100.00
47366;BME280;33105;47.964;7.982;2024-03-23T06:43:38;96153.97;;;8.53;100.00
47366;BME280;33105;47.964;7.982;2024-03-23T06:46:39;96178.22;;;8.23;100.00
47366;BME280;33105;47.964;7.982;2024-03-23T06:49:40;96169.25;;;8.22;100.00
47366;BME280;33105;47.964;7.982;2024-03-23T06:52:41;96179.69;;;7.98;100.00
47366;BME280;33105;47.964;7.982;2024-03-23T06:55:50;96183.72;;;7.96;100.00
47366;BME280;33105;47.964;7.982;2024-03-23T06:58:51;96200.41;;;8.04;100.00
47366;BME280;33105;47.964;7.982;2024-03-23T07:01:53;96219.41;;;7.99;100.00
47366;BME280;33105;47.964;7.982;2024-03-23T07:04:54;96224.59;;;7.74;100.00
47366;BME280;33105;47.964;7.982;2024-03-23T07:07:55;96242.00;;;7.73;100.00
47366;BME280;33105;47.964;7.982;2024-03-23T07:10:56;96248.66;;;7.87;100.00
47366;BME280;33105;47.964;7.982;2024-03-23T07:13:58;96266.38;;;7.63;100.00
47366;BME280;33105;47.964;7.982;2024-03-23T07:16:59;96270.47;;;7.65;100.00
47366;BME280;33105;47.964;7.982;2024-03-23T07:20:01;96277.69;;;7.55;100.00
47366;BME280;33105;47.964;7.982;2024-03-23T07:23:04;96284.69;;;7.50;100.00
47366;BME280;33105;47.964;7.982;2024-03-23T07:26:05;96284.88;;;7.66;100.00
47366;BME280;33105;47.964;7.982;2024-03-23T07:29:07;96287.31;;;7.67;100.00
47366;BME280;33105;47.964;7.982;2024-03-23T07:32:08;96296.59;;;7.66;100.00
47366;BME280;33105;47.964;7.982;2024-03-23T07:35:09;96311.50;;;7.64;100.00
47366;BME280;33105;47.964;7.982;2024-03-23T07:38:10;96309.66;;;7.47;100.00
47366;BME280;33105;47.964;7.982;2024-03-23T07:41:15;96324.00;;;7.43;100.00
47366;BME280;33105;47.964;7.982;2024-03-23T07:44:18;96340.59;;;7.41;100.00
47366;BME280;33105;47.964;7.982;2024-03-23T07:47:19;96338.97;;;7.45;100.00
47366;BME280;33105;47.964;7.982;2024-03-23T07:50:20;96346.56;;;7.43;100.00
47366;BME280;33105;47.964;7.982;2024-03-23T07:53:21;96363.84;;;7.54;100.00
47366;BME280;33105;47.964;7.982;2024-03-23T07:56:22;96380.22;;;7.37;100.00
47366;BME280;33105;47.964;7.982;2024-03-23T07:59:24;96380.25;;;7.04;100.00
47366;BME280;33105;47.964;7.982;2024-03-23T08:02:26;96377.28;;;7.05;100.00
47366;BME280;33105;47.964;7.982;2024-03-23T08:05:27;96383.91;;;6.93;100.00
47366;BME280;33105;47.964;7.982;2024-03-23T08:08:28;96398.47;;;6.87;100.00
47366;BME280;33105;47.964;7.982;2024-03-23T08:11:31;96415.66;;;6.75;100.00
47366;BME280;33105;47.964;7.982;2024-03-23T08:14:32;96439.00;;;6.93;100.00
47366;BME280;33105;47.964;7.982;2024-03-23T08:17:34;96443.69;;;6.98;100.00
47366;BME280;33105;47.964;7.982;2024-03-23T08:20:35;96458.94;;;6.99;100.00
47366;BME280;33105;47.964;7.982;2024-03-23T08:23:37;96448.09;;;7.15;100.00
47366;BME280;33105;47.964;7.982;2024-03-23T08:26:39;96445.69;;;6.86;100.00
47366;BME280;33105;47.964;7.982;2024-03-23T08:29:40;96447.16;;;6.76;100.00
47366;BME280;33105;47.964;7.982;2024-03-23T08:32:42;96467.66;;;6.67;100.00
47366;BME280;33105;47.964;7.982;2024-03-23T08:36:06;96462.53;;;6.71;100.00
47366;BME280;33105;47.964;7.982;2024-03-23T08:39:08;96481.72;;;6.36;100.00
47366;BME280;33105;47.964;7.982;2024-03-23T08:42:09;96482.94;;;6.73;100.00
47366;BME280;33105;47.964;7.982;2024-03-23T08:45:10;96483.03;;;6.95;100.00
47366;BME280;33105;47.964;7.982;2024-03-23T08:48:11;96486.19;;;7.04;100.00
47366;BME280;33105;47.964;7.982;2024-03-23T08:51:14;96495.41;;;7.20;100.00
47366;BME280;33105;47.964;7.982;2024-03-23T08:54:15;96493.50;;;7.20;100.00
47366;BME280;33105;47.964;7.982;2024-03-23T08:57:16;96507.44;;;7.07;97.46
47366;BME280;33105;47.964;7.982;2024-03-23T09:00:17;96501.56;;;6.98;99.90
47366;BME280;33105;47.964;7.982;2024-03-23T09:03:18;96505.53;;;7.07;96.85
47366;BME280;33105;47.964;7.982;2024-03-23T09:06:20;96494.91;;;6.89;95.82
47366;BME280;33105;47.964;7.982;2024-03-23T09:09:21;96491.38;;;6.89;93.17
47366;BME280;33105;47.964;7.982;2024-03-23T09:12:24;96489.63;;;6.82;96.98
47366;BME280;33105;47.964;7.982;2024-03-23T09:15:25;96481.81;;;7.03;99.52
47366;BME280;33105;47.964;7.982;2024-03-23T09:18:26;96476.72;;;7.06;96.63
47366;BME280;33105;47.964;7.982;2024-03-23T09:21:27;96486.84;;;7.28;95.92
47366;BME280;33105;47.964;7.982;2024-03-23T09:24:28;96488.59;;;7.17;95.19
47366;BME280;33105;47.964;7.982;2024-03-23T09:27:30;96483.28;;;6.94;94.30
47366;BME280;33105;47.964;7.982;2024-03-23T09:30:32;96492.44;;;6.88;93.36
47366;BME280;33105;47.964;7.982;2024-03-23T09:33:35;96487.16;;;6.81;94.60
47366;BME280;33105;47.964;7.982;2024-03-23T09:36:36;96473.75;;;6.91;91.05
47366;BME280;33105;47.964;7.982;2024-03-23T09:39:37;96474.31;;;7.27;93.05
47366;BME280;33105;47.964;7.982;2024-03-23T09:42:38;96480.66;;;7.49;94.17
47366;BME280;33105;47.964;7.982;2024-03-23T09:45:40;96470.34;;;7.90;91.31
47366;BME280;33105;47.964;7.982;2024-03-23T09:48:42;96454.91;;;8.17;93.03
47366;BME280;33105;47.964;7.982;2024-03-23T09:51:45;96460.91;;;8.19;86.50
47366;BME280;33105;47.964;7.982;2024-03-23T09:54:46;96469.13;;;8.41;88.72
47366;BME280;33105;47.964;7.982;2024-03-23T09:57:48;96450.91;;;8.25;87.40
47366;BME280;33105;47.964;7.982;2024-03-23T10:00:49;96455.19;;;8.15;86.28
47366;BME280;33105;47.964;7.982;2024-03-23T10:03:50;96460.41;;;8.22;89.39
47366;BME280;33105;47.964;7.982;2024-03-23T10:06:51;96438.19;;;8.52;83.15
47366;BME280;33105;47.964;7.982;2024-03-23T10:09:52;96447.78;;;8.33;86.54
47366;BME280;33105;47.964;7.982;2024-03-23T10:12:53;96451.66;;;8.37;85.72
47366;BME280;33105;47.964;7.982;2024-03-23T10:15:56;96446.97;;;8.32;84.52
47366;BME280;33105;47.964;7.982;2024-03-23T10:18:58;96452.25;;;8.44;82.49
47366;BME280;33105;47.964;7.982;2024-03-23T10:22:00;96447.28;;;8.14;82.66
47366;BME280;33105;47.964;7.982;2024-03-23T10:25:09;96435.66;;;8.24;77.78
47366;BME280;33105;47.964;7.982;2024-03-23T10:28:10;96444.91;;;8.23;76.24
47366;BME280;33105;47.964;7.982;2024-03-23T10:31:12;96452.69;;;7.92;80.11
47366;BME280;33105;47.964;7.982;2024-03-23T10:34:14;96453.50;;;7.93;81.77
47366;BME280;33105;47.964;7.982;2024-03-23T10:37:16;96449.84;;;7.60;80.92
47366;BME280;33105;47.964;7.982;2024-03-23T10:40:17;96453.38;;;7.61;82.22
47366;BME280;33105;47.964;7.982;2024-03-23T10:43:19;96467.78;;;7.61;82.56
47366;BME280;33105;47.964;7.982;2024-03-23T10:46:21;96462.88;;;7.41;82.71
47366;BME280;33105;47.964;7.982;2024-03-23T10:49:22;96511.22;;;7.06;86.34
47366;BME280;33105;47.964;7.982;2024-03-23T10:52:24;96521.53;;;6.47;91.91
47366;BME280;33105;47.964;7.982;2024-03-23T10:55:25;96544.44;;;5.64;99.00
47366;BME280;33105;47.964;7.982;2024-03-23T10:58:30;96557.59;;;5.49;100.00
47366;BME280;33105;47.964;7.982;2024-03-23T11:01:32;96563.72;;;5.44;100.00
47366;BME280;33105;47.964;7.982;2024-03-23T11:04:37;96572.63;;;5.22;100.00
47366;BME280;33105;47.964;7.982;2024-03-23T11:07:49;96598.66;;;5.11;100.00
47366;BME280;33105;47.964;7.982;2024-03-23T11:10:51;96616.78;;;4.81;100.00
47366;BME280;33105;47.964;7.982;2024-03-23T11:13:53;96609.94;;;4.78;100.00
47366;BME280;33105;47.964;7.982;2024-03-23T11:17:11;96619.31;;;4.64;100.00
47366;BME280;33105;47.964;7.982;2024-03-23T11:20:12;96613.69;;;5.07;100.00
47366;BME280;33105;47.964;7.982;2024-03-23T11:23:28;96608.81;;;5.27;100.00
47366;BME280;33105;47.964;7.982;2024-03-23T11:26:30;96600.38;;;5.59;100.00
47366;BME280;33105;47.964;7.982;2024-03-23T11:29:31;96588.00;;;6.21;100.00
47366;BME280;33105;47.964;7.982;2024-03-23T11:32:32;96590.22;;;6.36;100.00
47366;BME280;33105;47.964;7.982;2024-03-23T11:35:36;96589.53;;;6.29;100.00
47366;BME280;33105;47.964;7.982;2024-03-23T11:38:38;96588.50;;;6.18;100.00
47366;BME280;33105;47.964;7.982;2024-03-23T11:41:46;96590.84;;;5.79;100.00
47366;BME280;33105;47.964;7.982;2024-03-23T11:44:48;96592.03;;;5.95;100.00
47366;BME280;33105;47.964;7.982;2024-03-23T11:48:01;96598.84;;;6.21;100.00
47366;BME280;33105;47.964;7.982;2024-03-23T11:51:03;96586.34;;;6.32;100.00
47366;BME280;33105;47.964;7.982;2024-03-23T11:54:08;96587.44;;;5.96;100.00
47366;BME280;33105;47.964;7.982;2024-03-23T11:57:09;96586.94;;;6.22;100.00
47366;BME280;33105;47.964;7.982;2024-03-23T12:00:21;96590.88;;;5.91;100.00
47366;BME280;33105;47.964;7.982;2024-03-23T12:03:23;96582.63;;;6.09;100.00
47366;BME280;33105;47.964;7.982;2024-03-23T12:06:28;96573.06;;;5.95;100.00
47366;BME280;33105;47.964;7.982;2024-03-23T12:09:29;96564.59;;;6.43;100.00
47366;BME280;33105;47.964;7.982;2024-03-23T12:12:30;96548.56;;;6.70;100.00
47366;BME280;33105;47.964;7.982;2024-03-23T12:15:31;96536.72;;;7.05;100.00
47366;BME280;33105;47.964;7.982;2024-03-23T12:18:32;96534.03;;;7.55;100.00
47366;BME280;33105;47.964;7.982;2024-03-23T12:21:34;96521.00;;;7.96;100.00
47366;BME280;33105;47.964;7.982;2024-03-23T12:24:35;96508.94;;;7.70;99.59
47366;BME280;33105;47.964;7.982;2024-03-23T12:27:36;96513.63;;;7.74;98.80
47366;BME280;33105;47.964;7.982;2024-03-23T12:30:41;96510.44;;;7.99;95.19
47366;BME280;33105;47.964;7.982;2024-03-23T12:33:42;96496.59;;;8.01;97.84
47366;BME280;33105;47.964;7.982;2024-03-23T12:36:45;96498.50;;;8.00;90.30
47366;BME280;33105;47.964;7.982;2024-03-23T12:39:46;96476.88;;;7.89;86.03
47366;BME280;33105;47.964;7.982;2024-03-23T12:42:48;96483.91;;;7.68;88.84
47366;BME280;33105;47.964;7.982;2024-03-23T12:45:49;96491.13;;;7.79;91.59
47366;BME280;33105;47.964;7.982;2024-03-23T12:48:50;96487.69;;;8.05;89.98
47366;BME280;33105;47.964;7.982;2024-03-23T12:51:56;96483.03;;;7.62;87.56
47366;BME280;33105;47.964;7.982;2024-03-23T12:54:57;96484.19;;;7.66;93.28
47366;BME280;33105;47.964;7.982;2024-03-23T12:57:59;96476.03;;;8.32;90.48
47366;BME280;33105;47.964;7.982;2024-03-23T13:01:00;96465.03;;;8.70;83.26
47366;BME280;33105;47.964;7.982;2024-03-23T13:04:02;96452.06;;;8.77;83.20
47366;BME280;33105;47.964;7.982;2024-03-23T13:07:03;96463.91;;;8.93;79.53
47366;BME280;33105;47.964;7.982;2024-03-23T13:10:06;96466.19;;;8.74;80.23
47366;BME280;33105;47.964;7.982;2024-03-23T13:13:07;96445.41;;;8.95;78.11
47366;BME280;33105;47.964;7.982;2024-03-23T13:16:09;96459.19;;;8.57;74.85
47366;BME280;33105;47.964;7.982;2024-03-23T13:19:10;96451.06;;;8.35;79.22
47366;BME280;33105;47.964;7.982;2024-03-23T13:22:11;96437.72;;;8.11;77.70
47366;BME280;33105;47.964;7.982;2024-03-23T13:25:12;96444.34;;;7.99;78.91
47366;BME280;33105;47.964;7.982;2024-03-23T13:28:13;96438.47;;;7.85;77.43
47366;BME280;33105;47.964;7.982;2024-03-23T13:31:14;96437.31;;;7.81;75.66
47366;BME280;33105;47.964;7.982;2024-03-23T13:34:17;96441.38;;;7.78;75.76
47366;BME280;33105;47.964;7.982;2024-03-23T13:37:19;96435.53;;;7.70;76.68
47366;BME280;33105;47.964;7.982;2024-03-23T13:40:20;96432.22;;;8.06;77.10
47366;BME280;33105;47.964;7.982;2024-03-23T13:43:22;96419.00;;;8.42;79.46
47366;BME280;33105;47.964;7.982;2024-03-23T13:46:24;96410.53;;;8.97;75.35
47366;BME280;33105;47.964;7.982;2024-03-23T13:49:29;96405.75;;;9.09;74.29
47366;BME280;33105;47.964;7.982;2024-03-23T13:52:31;96385.06;;;9.13;71.22
47366;BME280;33105;47.964;7.982;2024-03-23T13:55:32;96381.91;;;8.95;71.52
47366;BME280;33105;47.964;7.982;2024-03-23T13:58:34;96373.16;;;8.88;71.07
47366;BME280;33105;47.964;7.982;2024-03-23T14:01:35;96371.63;;;8.65;70.42
47366;BME280;33105;47.964;7.982;2024-03-23T14:04:37;96363.56;;;8.80;71.16
47366;BME280;33105;47.964;7.982;2024-03-23T14:07:39;96361.47;;;8.92;68.05
47366;BME280;33105;47.964;7.982;2024-03-23T14:10:41;96353.19;;;9.14;65.83
47366;BME280;33105;47.964;7.982;2024-03-23T14:13:42;96339.81;;;9.12;68.29
47366;BME280;33105;47.964;7.982;2024-03-23T14:16:43;96346.78;;;9.35;70.95
47366;BME280;33105;47.964;7.982;2024-03-23T14:19:45;96335.44;;;9.59;66.12
47366;BME280;33105;47.964;7.982;2024-03-23T14:22:46;96329.16;;;9.58;60.62
47366;BME280;33105;47.964;7.982;2024-03-23T14:25:47;96332.50;;;9.23;65.91
47366;BME280;33105;47.964;7.982;2024-03-23T14:28:49;96335.03;;;8.93;64.34
47366;BME280;33105;47.964;7.982;2024-03-23T14:31:51;96341.78;;;8.80;63.88
47366;BME280;33105;47.964;7.982;2024-03-23T14:34:52;96344.69;;;8.73;57.89
47366;BME280;33105;47.964;7.982;2024-03-23T14:37:55;96355.53;;;8.63;59.53
47366;BME280;33105;47.964;7.982;2024-03-23T14:41:00;96340.38;;;8.45;58.67
47366;BME280;33105;47.964;7.982;2024-03-23T14:44:03;96351.34;;;8.29;59.70
47366;BME280;33105;47.964;7.982;2024-03-23T14:47:04;96358.91;;;8.22;60.55
47366;BME280;33105;47.964;7.982;2024-03-23T14:50:06;96373.44;;;8.05;59.79
47366;BME280;33105;47.964;7.982;2024-03-23T14:53:09;96375.19;;;7.95;59.89
47366;BME280;33105;47.964;7.982;2024-03-23T14:56:10;96387.88;;;7.84;59.90
47366;BME280;33105;47.964;7.982;2024-03-23T14:59:14;96398.19;;;7.82;63.45
47366;BME280;33105;47.964;7.982;2024-03-23T15:02:15;96403.78;;;7.54;61.28
47366;BME280;33105;47.964;7.982;2024-03-23T15:05:16;96394.00;;;7.53;65.13
47366;BME280;33105;47.964;7.982;2024-03-23T15:08:17;96394.94;;;7.41;65.16
47366;BME280;33105;47.964;7.982;2024-03-23T15:11:18;96401.94;;;7.37;64.62
47366;BME280;33105;47.964;7.982;2024-03-23T15:14:20;96399.44;;;7.53;65.44
47366;BME280;33105;47.964;7.982;2024-03-23T15:17:23;96402.44;;;7.34;63.80
47366;BME280;33105;47.964;7.982;2024-03-23T15:20:26;96403.09;;;7.41;64.53
47366;BME280;33105;47.964;7.982;2024-03-23T15:23:29;96397.44;;;7.26;64.96
47366;BME280;33105;47.964;7.982;2024-03-23T15:26:30;96392.84;;;7.48;65.24
47366;BME280;33105;47.964;7.982;2024-03-23T15:29:31;96393.88;;;7.64;66.25
47366;BME280;33105;47.964;7.982;2024-03-23T15:32:32;96401.50;;;7.67;67.60
47366;BME280;33105;47.964;7.982;2024-03-23T15:35:33;96379.81;;;7.50;66.70
47366;BME280;33105;47.964;7.982;2024-03-23T15:38:34;96369.28;;;7.54;66.92
47366;BME280;33105;47.964;7.982;2024-03-23T15:41:36;96380.41;;;7.74;66.68
47366;BME280;33105;47.964;7.982;2024-03-23T15:44:38;96355.88;;;7.47;66.18
47366;BME280;33105;47.964;7.982;2024-03-23T15:47:39;96351.00;;;7.49;65.33
47366;BME280;33105;47.964;7.982;2024-03-23T15:50:40;96357.41;;;7.38;68.71
47366;BME280;33105;47.964;7.982;2024-03-23T15:53:41;96352.53;;;7.40;66.55
47366;BME280;33105;47.964;7.982;2024-03-23T15:56:42;96358.97;;;7.34;67.10
47366;BME280;33105;47.964;7.982;2024-03-23T15:59:43;96351.81;;;7.28;67.24
47366;BME280;33105;47.964;7.982;2024-03-23T16:02:45;96359.38;;;7.26;69.97
47366;BME280;33105;47.964;7.982;2024-03-23T16:05:54;96343.66;;;7.28;67.33
47366;BME280;33105;47.964;7.982;2024-03-23T16:08:55;96357.53;;;7.10;70.04
47366;BME280;33105;47.964;7.982;2024-03-23T16:11:56;96360.59;;;6.97;75.73
47366;BME280;33105;47.964;7.982;2024-03-23T16:14:57;96373.72;;;6.66;82.57
47366;BME280;33105;47.964;7.982;2024-03-23T16:17:59;96384.97;;;6.41;85.32
47366;BME280;33105;47.964;7.982;2024-03-23T16:21:04;96407.13;;;5.93;90.90
47366;BME280;33105;47.964;7.982;2024-03-23T16:24:07;96430.56;;;5.88;95.68
47366;BME280;33105;47.964;7.982;2024-03-23T16:27:08;96432.09;;;5.72;96.80
47366;BME280;33105;47.964;7.982;2024-03-23T16:30:11;96445.47;;;5.27;98.17
47366;BME280;33105;47.964;7.982;2024-03-23T16:33:12;96437.84;;;5.12;99.28
47366;BME280;33105;47.964;7.982;2024-03-23T16:36:14;96431.69;;;5.28;100.00
47366;BME280;33105;47.964;7.982;2024-03-23T16:39:15;96421.09;;;5.38;99.91
47366;BME280;33105;47.964;7.982;2024-03-23T16:42:16;96421.69;;;5.40;99.55
47366;BME280;33105;47.964;7.982;2024-03-23T16:45:18;96417.34;;;5.39;100.00
47366;BME280;33105;47.964;7.982;2024-03-23T16:48:19;96400.94;;;5.46;98.24
47366;BME280;33105;47.964;7.982;2024-03-23T16:51:20;96399.56;;;5.43;98.47
47366;BME280;33105;47.964;7.982;2024-03-23T16:54:22;96409.09;;;5.34;100.00
47366;BME280;33105;47.964;7.982;2024-03-23T16:57:23;96405.28;;;5.47;99.03
47366;BME280;33105;47.964;7.982;2024-03-23T17:00:24;96411.78;;;5.46;98.05